Time;durP1;ratioP1;P1;durP2;ratioP2;P2;SDS_P1;SDS_P2;PMS_P1;PMS_P2;Temp;Humidity;BMP_temperature;BMP_pressure;BME280_temperature;BME280_humidity;BME280_pressure;Samples;Min_cycle;Max_cycle;Signal;HPM_P1;HPM_P2
2024/04/13 00:02:52;;;;;;;11.02;7.15;;;;;;;;;;4930427;29;20196;-92
2024/04/13 00:05:58;;;;;;;12.77;7.90;;;;;;;;;;4929927;29;20591;-90
2024/04/13 00:09:03;;;;;;;20.05;8.18;;;;;;;;;;4929566;29;20286;-92
2024/04/13 00:12:08;;;;;;;12.95;8.38;;;;;;;;;;4928791;29;20216;-92
2024/04/13 00:15:12;;;;;;;14.63;7.85;;;;;;;;;;4928978;29;20203;-91
2024/04/13 00:18:19;;;;;;;19.38;7.85;;;;;;;;;;5008921;23;20242;-92
2024/04/13 00:21:23;;;;;;;15.35;8.35;;;;;;;;;;4929549;29;20188;-93
2024/04/13 00:24:28;;;;;;;14.82;8.35;;;;;;;;;;4929246;29;20243;-91
2024/04/13 00:27:32;;;;;;;14.60;8.40;;;;;;;;;;4928164;29;20192;-92
2024/04/13 00:30:38;;;;;;;18.77;7.93;;;;;;;;;;4929271;29;20179;-91
2024/04/13 00:33:44;;;;;;;15.55;7.75;;;;;;;;;;4930512;29;20184;-92
2024/04/13 00:36:49;;;;;;;16.80;8.32;;;;;;;;;;4929301;29;20204;-94
2024/04/13 00:39:53;;;;;;;12.55;7.90;;;;;;;;;;4929642;29;20188;-92
2024/04/13 00:43:06;;;;;;;14.18;8.10;;;;;;;;;;4928027;29;20196;-92
2024/04/13 00:46:16;;;;;;;18.58;8.23;;;;;;;;;;4928892;29;20223;-93
2024/04/13 00:49:26;;;;;;;16.45;8.25;;;;;;;;;;4928946;29;20192;-90
2024/04/13 00:52:31;;;;;;;16.20;8.57;;;;;;;;;;4929558;29;20204;-91
2024/04/13 00:55:36;;;;;;;14.70;8.93;;;;;;;;;;4929693;29;20247;-91
2024/04/13 00:58:42;;;;;;;15.50;7.68;;;;;;;;;;4929458;29;20179;-91
2024/04/13 01:01:46;;;;;;;15.32;7.35;;;;;;;;;;4929180;29;20176;-92
2024/04/13 01:04:54;;;;;;;15.85;8.18;;;;;;;;;;4929470;29;20295;-92
2024/04/13 01:08:00;;;;;;;11.98;7.35;;;;;;;;;;4928638;29;20199;-92
2024/04/13 01:11:06;;;;;;;19.23;7.82;;;;;;;;;;4928324;29;20203;-92
2024/04/13 01:14:13;;;;;;;15.45;8.02;;;;;;;;;;4928874;29;20188;-91
2024/04/13 01:17:17;;;;;;;16.70;7.72;;;;;;;;;;4928733;29;20249;-93
2024/04/13 01:20:24;;;;;;;19.02;7.95;;;;;;;;;;4929148;29;20216;-92
2024/04/13 01:23:30;;;;;;;14.25;8.00;;;;;;;;;;4928419;29;20225;-92
2024/04/13 01:26:38;;;;;;;16.10;7.97;;;;;;;;;;4931186;29;20227;-93
2024/04/13 01:29:43;;;;;;;21.15;8.63;;;;;;;;;;4926949;29;20313;-93
2024/04/13 01:32:49;;;;;;;15.77;7.57;;;;;;;;;;4927336;29;20184;-92
2024/04/13 01:35:56;;;;;;;13.25;7.57;;;;;;;;;;4927109;29;20200;-92
2024/04/13 01:39:01;;;;;;;16.05;7.80;;;;;;;;;;4928866;29;20216;-92
2024/04/13 01:42:07;;;;;;;17.65;8.02;;;;;;;;;;4928337;29;20196;-92
2024/04/13 01:45:12;;;;;;;17.02;8.13;;;;;;;;;;4928477;29;20260;-92
2024/04/13 01:48:17;;;;;;;15.48;8.45;;;;;;;;;;4927825;29;20249;-92
2024/04/13 01:51:23;;;;;;;16.73;8.63;;;;;;;;;;4928372;29;20196;-91
2024/04/13 01:54:28;;;;;;;16.40;8.50;;;;;;;;;;4926291;29;20195;-92
2024/04/13 01:57:34;;;;;;;15.65;8.52;;;;;;;;;;4926467;29;20800;-92
2024/04/13 02:00:39;;;;;;;15.77;8.23;;;;;;;;;;4929694;29;20194;-90
2024/04/13 02:03:43;;;;;;;15.15;8.88;;;;;;;;;;4927636;29;20199;-90
2024/04/13 02:06:49;;;;;;;14.77;8.60;;;;;;;;;;4927126;29;20566;-89
2024/04/13 02:09:53;;;;;;;17.00;8.88;;;;;;;;;;4928465;29;20195;-91
2024/04/13 02:12:59;;;;;;;18.55;8.98;;;;;;;;;;4927860;29;20293;-91
2024/04/13 02:16:04;;;;;;;16.02;8.40;;;;;;;;;;4928711;29;20220;-91
2024/04/13 02:19:09;;;;;;;18.63;8.65;;;;;;;;;;4927498;29;20240;-92
2024/04/13 02:22:15;;;;;;;17.73;9.70;;;;;;;;;;4929314;29;20175;-91
2024/04/13 02:25:20;;;;;;;19.77;9.27;;;;;;;;;;4929404;29;20187;-91
2024/04/13 02:28:26;;;;;;;26.13;10.63;;;;;;;;;;4926840;29;20207;-90
2024/04/13 02:31:31;;;;;;;18.83;9.60;;;;;;;;;;4927271;29;20702;-92
2024/04/13 02:34:35;;;;;;;19.98;9.43;;;;;;;;;;4927288;29;20571;-91
2024/04/13 02:37:41;;;;;;;15.48;8.85;;;;;;;;;;4927164;29;20901;-92
2024/04/13 02:40:53;;;;;;;22.70;10.35;;;;;;;;;;4926704;29;20200;-92
2024/04/13 02:44:00;;;;;;;20.65;10.05;;;;;;;;;;4926966;29;20188;-91
2024/04/13 02:47:05;;;;;;;17.10;9.63;;;;;;;;;;4927205;29;20212;-92
2024/04/13 02:50:11;;;;;;;23.45;9.60;;;;;;;;;;4926790;29;20195;-92
2024/04/13 02:53:14;;;;;;;18.77;9.57;;;;;;;;;;4926700;29;20184;-93
2024/04/13 02:56:19;;;;;;;14.73;8.60;;;;;;;;;;4926487;29;20296;-92
2024/04/13 02:59:25;;;;;;;16.17;8.85;;;;;;;;;;4926201;29;20192;-92
2024/04/13 03:02:30;;;;;;;17.30;9.30;;;;;;;;;;4927985;29;20225;-91
2024/04/13 03:05:37;;;;;;;18.00;10.02;;;;;;;;;;4928382;29;20276;-91
2024/04/13 03:08:41;;;;;;;20.23;9.57;;;;;;;;;;4931095;29;20196;-91
2024/04/13 03:11:46;;;;;;;18.15;9.52;;;;;;;;;;4928087;29;20257;-92
2024/04/13 03:14:55;;;;;;;18.95;9.43;;;;;;;;;;4929571;29;20192;-90
2024/04/13 03:17:59;;;;;;;18.85;10.05;;;;;;;;;;4925372;29;20268;-91
2024/04/13 03:21:05;;;;;;;16.67;9.13;;;;;;;;;;4927011;29;20192;-91
2024/04/13 03:24:10;;;;;;;17.30;8.80;;;;;;;;;;4928869;29;20666;-91
2024/04/13 03:27:14;;;;;;;17.75;9.07;;;;;;;;;;4927252;29;20190;-92
2024/04/13 03:30:20;;;;;;;13.77;8.43;;;;;;;;;;4927676;29;20321;-92
2024/04/13 03:33:25;;;;;;;15.75;8.75;;;;;;;;;;4928438;29;20172;-91
2024/04/13 03:36:30;;;;;;;16.20;8.75;;;;;;;;;;4931960;29;20227;-90
2024/04/13 03:39:35;;;;;;;16.27;8.65;;;;;;;;;;4930523;29;20237;-92
2024/04/13 03:42:40;;;;;;;18.08;8.82;;;;;;;;;;4930217;29;20659;-93
2024/04/13 03:45:53;;;;;;;14.07;7.90;;;;;;;;;;4929488;29;20192;-91
2024/04/13 03:48:58;;;;;;;14.77;8.70;;;;;;;;;;4928086;29;20183;-91
2024/04/13 03:52:03;;;;;;;14.32;8.05;;;;;;;;;;4928560;29;20183;-92
2024/04/13 03:55:08;;;;;;;15.20;7.97;;;;;;;;;;4928723;29;20183;-92
2024/04/13 03:58:11;;;;;;;18.25;8.45;;;;;;;;;;4930295;29;20192;-92
2024/04/13 04:01:18;;;;;;;15.73;8.75;;;;;;;;;;4928403;29;20208;-90
2024/04/13 04:04:23;;;;;;;19.30;8.88;;;;;;;;;;4929963;29;20184;-92
2024/04/13 04:07:27;;;;;;;16.13;9.27;;;;;;;;;;4929318;29;20255;-91
2024/04/13 04:10:32;;;;;;;15.82;7.82;;;;;;;;;;4929802;29;20195;-91
2024/04/13 04:13:37;;;;;;;18.95;8.80;;;;;;;;;;4929514;29;20220;-93
2024/04/13 04:16:42;;;;;;;14.45;8.52;;;;;;;;;;4929059;29;20356;-91
2024/04/13 04:19:48;;;;;;;14.25;8.68;;;;;;;;;;4929343;29;20196;-93
2024/04/13 04:22:52;;;;;;;14.15;8.55;;;;;;;;;;4919715;29;20223;-91
2024/04/13 04:26:01;;;;;;;14.68;8.70;;;;;;;;;;4933475;29;20217;-92
2024/04/13 04:29:06;;;;;;;15.52;8.52;;;;;;;;;;4931695;29;20297;-93
2024/04/13 04:32:12;;;;;;;14.70;8.82;;;;;;;;;;4929718;29;20192;-89
2024/04/13 04:35:17;;;;;;;14.65;9.10;;;;;;;;;;4928810;29;20260;-92
2024/04/13 04:38:21;;;;;;;18.58;9.52;;;;;;;;;;4931247;29;20180;-92
2024/04/13 04:41:26;;;;;;;20.45;9.40;;;;;;;;;;4930371;29;20192;-91
2024/04/13 04:44:32;;;;;;;17.00;9.38;;;;;;;;;;4929809;29;20268;-92
2024/04/13 04:47:37;;;;;;;15.23;9.15;;;;;;;;;;4930231;29;20656;-91
2024/04/13 04:50:42;;;;;;;15.32;8.52;;;;;;;;;;4928728;29;20289;-92
2024/04/13 04:53:46;;;;;;;14.27;8.23;;;;;;;;;;4928232;29;20204;-91
2024/04/13 04:56:51;;;;;;;18.73;9.40;;;;;;;;;;4931430;29;20280;-91
2024/04/13 04:59:55;;;;;;;16.08;8.45;;;;;;;;;;4933175;29;20329;-91
2024/04/13 05:03:02;;;;;;;18.58;9.13;;;;;;;;;;4932967;29;20245;-91
2024/04/13 05:06:06;;;;;;;13.80;8.27;;;;;;;;;;4930147;29;20320;-91
2024/04/13 05:09:11;;;;;;;16.80;9.75;;;;;;;;;;4928359;29;20199;-91
2024/04/13 05:12:15;;;;;;;20.05;8.60;;;;;;;;;;4927808;29;20761;-92
2024/04/13 05:15:21;;;;;;;19.08;9.02;;;;;;;;;;4929288;29;20211;-91
2024/04/13 05:18:27;;;;;;;18.98;9.13;;;;;;;;;;4927527;29;20196;-92
2024/04/13 05:21:33;;;;;;;14.95;9.02;;;;;;;;;;4929494;29;20188;-92
2024/04/13 05:24:37;;;;;;;16.92;9.02;;;;;;;;;;4927367;29;20188;-91
2024/04/13 05:27:42;;;;;;;24.45;10.10;;;;;;;;;;4928675;29;20200;-91
2024/04/13 05:30:55;;;;;;;18.25;9.80;;;;;;;;;;4928700;29;20192;-91
2024/04/13 05:34:02;;;;;;;15.18;8.82;;;;;;;;;;4928752;29;20180;-91
2024/04/13 05:37:07;;;;;;;15.30;8.93;;;;;;;;;;4930555;29;20228;-91
2024/04/13 05:40:12;;;;;;;15.55;8.38;;;;;;;;;;4929129;29;20196;-92
2024/04/13 05:43:17;;;;;;;14.85;8.23;;;;;;;;;;4928091;29;20236;-92
2024/04/13 05:46:22;;;;;;;14.75;8.63;;;;;;;;;;4927868;29;20196;-92
2024/04/13 05:49:27;;;;;;;13.25;7.65;;;;;;;;;;4928648;29;20191;-93
2024/04/13 05:52:33;;;;;;;15.10;8.38;;;;;;;;;;4929956;29;20228;-92
2024/04/13 05:55:39;;;;;;;12.73;7.70;;;;;;;;;;4926318;29;20231;-93
2024/04/13 05:58:45;;;;;;;11.20;7.25;;;;;;;;;;4927628;29;20269;-92
2024/04/13 06:01:49;;;;;;;12.50;7.45;;;;;;;;;;4931994;29;20188;-92
2024/04/13 06:04:55;;;;;;;15.32;7.80;;;;;;;;;;4930559;29;20244;-93
2024/04/13 06:07:59;;;;;;;16.02;7.97;;;;;;;;;;4930662;29;20193;-93
2024/04/13 06:11:05;;;;;;;13.30;7.38;;;;;;;;;;4932605;29;20187;-91
2024/04/13 06:14:10;;;;;;;15.93;8.02;;;;;;;;;;4928882;29;20195;-92
2024/04/13 06:17:15;;;;;;;10.65;7.10;;;;;;;;;;4929215;29;20284;-92
2024/04/13 06:20:25;;;;;;;11.82;7.25;;;;;;;;;;4929340;29;20245;-92
2024/04/13 06:23:31;;;;;;;13.45;7.40;;;;;;;;;;4930103;29;20196;-93
2024/04/13 06:26:37;;;;;;;12.73;7.07;;;;;;;;;;4931922;29;20200;-91
2024/04/13 06:29:42;;;;;;;13.00;6.88;;;;;;;;;;4927315;29;20200;-92
2024/04/13 06:32:47;;;;;;;10.60;6.72;;;;;;;;;;4927895;29;20188;-93
2024/04/13 06:35:52;;;;;;;13.05;7.35;;;;;;;;;;4927466;29;20199;-92
2024/04/13 06:38:58;;;;;;;15.27;7.63;;;;;;;;;;4927903;29;20192;-92
2024/04/13 06:42:02;;;;;;;14.85;8.20;;;;;;;;;;4928407;29;20279;-93
2024/04/13 06:45:12;;;;;;;11.82;7.63;;;;;;;;;;4927241;29;20203;-92
2024/04/13 06:48:17;;;;;;;17.83;7.53;;;;;;;;;;4928478;29;20211;-93
2024/04/13 06:51:23;;;;;;;14.18;7.07;;;;;;;;;;4927979;29;20212;-91
2024/04/13 06:54:28;;;;;;;12.20;7.13;;;;;;;;;;4928313;29;20268;-93
2024/04/13 06:57:32;;;;;;;9.30;6.45;;;;;;;;;;4927286;29;20223;-92
2024/04/13 07:00:38;;;;;;;15.00;7.38;;;;;;;;;;4927498;29;20223;-93
2024/04/13 07:03:43;;;;;;;11.32;7.25;;;;;;;;;;4932247;29;20195;-94
2024/04/13 07:06:51;;;;;;;15.95;7.57;;;;;;;;;;4933261;29;20567;-93
2024/04/13 07:09:59;;;;;;;11.63;7.20;;;;;;;;;;4929939;29;20596;-95
2024/04/13 07:13:08;;;;;;;11.63;7.47;;;;;;;;;;4927462;29;20254;-94
2024/04/13 07:16:13;;;;;;;18.35;8.25;;;;;;;;;;4932418;29;20277;-94
2024/04/13 07:19:19;;;;;;;14.65;8.07;;;;;;;;;;4929131;29;20247;-93
2024/04/13 07:22:33;;;;;;;16.33;8.07;;;;;;;;;;4931144;29;20206;-93
2024/04/13 07:25:39;;;;;;;12.65;8.32;;;;;;;;;;4934093;29;20196;-91
2024/04/13 07:28:46;;;;;;;12.93;7.75;;;;;;;;;;4937510;29;20183;-94
2024/04/13 07:31:52;;;;;;;21.45;9.85;;;;;;;;;;4918443;29;20195;-93
2024/04/13 07:34:56;;;;;;;14.50;9.52;;;;;;;;;;4930379;29;20220;-92
2024/04/13 07:38:03;;;;;;;16.30;8.85;;;;;;;;;;4932175;29;20236;-93
2024/04/13 07:41:08;;;;;;;16.05;9.82;;;;;;;;;;4929860;29;20195;-94
2024/04/13 07:44:14;;;;;;;14.18;9.40;;;;;;;;;;4931566;29;20270;-93
2024/04/13 07:47:18;;;;;;;15.75;9.82;;;;;;;;;;4928882;29;20200;-92
2024/04/13 07:50:24;;;;;;;16.00;9.90;;;;;;;;;;4930669;29;20187;-93
2024/04/13 07:53:34;;;;;;;17.23;10.32;;;;;;;;;;4931382;29;20711;-93
2024/04/13 07:56:38;;;;;;;17.20;10.00;;;;;;;;;;4930527;29;20228;-93
2024/04/13 07:59:44;;;;;;;19.02;9.70;;;;;;;;;;4929474;29;20240;-92
2024/04/13 08:02:49;;;;;;;17.90;10.05;;;;;;;;;;4932984;29;20203;-92
2024/04/13 08:05:56;;;;;;;18.42;9.90;;;;;;;;;;4931458;29;20184;-93
2024/04/13 08:09:03;;;;;;;16.88;10.35;;;;;;;;;;4934417;29;20567;-94
2024/04/13 08:12:10;;;;;;;17.85;10.27;;;;;;;;;;4933171;29;20244;-94
2024/04/13 08:15:15;;;;;;;16.48;10.55;;;;;;;;;;4933349;29;20270;-93
2024/04/13 08:18:22;;;;;;;14.57;10.05;;;;;;;;;;4932998;29;20641;-94
2024/04/13 08:21:27;;;;;;;14.35;10.18;;;;;;;;;;4937406;29;20200;-92
2024/04/13 08:24:38;;;;;;;16.58;10.45;;;;;;;;;;4936198;29;20224;-94
2024/04/13 08:27:42;;;;;;;15.52;10.10;;;;;;;;;;4936421;29;20251;-94
2024/04/13 08:30:48;;;;;;;16.13;10.35;;;;;;;;;;4936909;29;20192;-92
2024/04/13 08:33:53;;;;;;;14.57;9.52;;;;;;;;;;4934614;29;20240;-94
2024/04/13 08:36:58;;;;;;;15.65;9.82;;;;;;;;;;4935607;29;20220;-95
2024/04/13 08:40:15;;;;;;;16.55;9.40;;;;;;;;;;4936797;29;20208;-95
2024/04/13 08:43:20;;;;;;;15.20;8.98;;;;;;;;;;4935412;29;20200;-95
2024/04/13 08:46:26;;;;;;;18.45;9.50;;;;;;;;;;4936772;29;20191;-92
2024/04/13 08:49:39;;;;;;;14.20;9.20;;;;;;;;;;4935728;29;20260;-94
2024/04/13 08:52:45;;;;;;;15.57;9.00;;;;;;;;;;4935110;29;20217;-95
2024/04/13 08:59:31;;;;;;;22.05;9.60;;;;;;;;;;4937458;29;20187;-94
2024/04/13 09:02:37;;;;;;;17.30;9.23;;;;;;;;;;4934479;29;20215;-94
2024/04/13 09:05:46;;;;;;;12.35;8.73;;;;;;;;;;4934466;29;20203;-94
2024/04/13 09:08:51;;;;;;;18.45;8.43;;;;;;;;;;4936532;29;20191;-93
2024/04/13 09:11:57;;;;;;;17.52;8.75;;;;;;;;;;4934046;29;20229;-94
2024/04/13 09:15:04;;;;;;;14.63;8.98;;;;;;;;;;4932591;29;20218;-94
2024/04/13 09:18:11;;;;;;;21.95;8.52;;;;;;;;;;4929832;29;20219;-95
2024/04/13 09:21:19;;;;;;;12.23;7.50;;;;;;;;;;4932344;29;20239;-93
2024/04/13 09:24:40;;;;;;;10.90;5.78;;;;;;;;;;4931010;29;20250;-94
2024/04/13 09:27:45;;;;;;;11.18;6.72;;;;;;;;;;4934500;29;20221;-95
2024/04/13 09:31:05;;;;;;;10.27;6.60;;;;;;;;;;4921641;29;20190;-94
2024/04/13 09:37:37;;;;;;;9.98;5.82;;;;;;;;;;4937540;29;20196;-94
2024/04/13 09:40:42;;;;;;;13.82;6.00;;;;;;;;;;4931773;29;20191;-94
2024/04/13 09:43:47;;;;;;;13.43;6.35;;;;;;;;;;4934331;29;20179;-95
2024/04/13 09:47:01;;;;;;;5.93;3.42;;;;;;;;;;4933431;29;20255;-95
2024/04/13 09:50:07;;;;;;;6.40;3.40;;;;;;;;;;4934532;29;20199;-94
2024/04/13 09:53:12;;;;;;;6.45;3.83;;;;;;;;;;4932867;29;20198;-94
2024/04/13 09:56:18;;;;;;;9.40;3.65;;;;;;;;;;4935544;29;20293;-96
2024/04/13 12:38:30;;;;;;;9.18;2.90;;;;;;;;;;4894077;29;20248;-94
2024/04/13 12:41:34;;;;;;;4.55;2.80;;;;;;;;;;4898508;29;20247;-92
2024/04/13 12:44:41;;;;;;;10.40;3.85;;;;;;;;;;4902659;29;20261;-92
2024/04/13 12:47:46;;;;;;;9.15;3.10;;;;;;;;;;4906219;29;20228;-94
2024/04/13 12:50:50;;;;;;;8.73;2.95;;;;;;;;;;4906175;29;20196;-95
2024/04/13 13:46:58;;;;;;;34.05;4.03;;;;;;;;;;5923763;23;20269;-94
2024/04/13 13:50:02;;;;;;;8.70;3.85;;;;;;;;;;4931380;29;20271;-95
2024/04/13 13:53:07;;;;;;;10.45;4.07;;;;;;;;;;4922261;29;20238;-95
2024/04/13 13:56:12;;;;;;;13.35;4.65;;;;;;;;;;4923980;29;20199;-95
2024/04/13 13:59:18;;;;;;;18.85;3.05;;;;;;;;;;4930802;29;20179;-96
2024/04/13 14:02:26;;;;;;;8.02;3.90;;;;;;;;;;4933883;29;20195;-93
2024/04/13 14:05:33;;;;;;;8.98;3.53;;;;;;;;;;4932131;29;20203;-94
2024/04/13 14:08:37;;;;;;;1.95;1.02;;;;;;;;;;4934308;29;20296;-95
2024/04/13 14:11:43;;;;;;;2.63;1.20;;;;;;;;;;4928914;29;20208;-94
2024/04/13 14:14:47;;;;;;;0.93;0.77;;;;;;;;;;4929951;29;20183;-95
2024/04/13 14:17:54;;;;;;;0.30;0.30;;;;;;;;;;4929673;29;20195;-92
2024/04/13 14:20:58;;;;;;;1.33;1.02;;;;;;;;;;4930948;29;20195;-94
2024/04/13 14:24:05;;;;;;;1.13;1.02;;;;;;;;;;4930982;29;20218;-93
2024/04/13 14:27:19;;;;;;;0.50;0.50;;;;;;;;;;4931316;29;20214;-92
2024/04/13 14:30:24;;;;;;;1.75;1.00;;;;;;;;;;4934128;29;20191;-93
2024/04/13 14:33:31;;;;;;;2.05;1.27;;;;;;;;;;4932409;29;20188;-93
2024/04/13 14:36:35;;;;;;;0.63;0.57;;;;;;;;;;4930693;29;20195;-93
2024/04/13 14:39:45;;;;;;;0.88;0.75;;;;;;;;;;4930611;29;20187;-93
2024/04/13 14:42:49;;;;;;;1.00;0.68;;;;;;;;;;4931174;29;20203;-94
2024/04/13 14:45:56;;;;;;;5.47;1.17;;;;;;;;;;4929780;29;20240;-94
2024/04/13 14:49:02;;;;;;;1.00;0.90;;;;;;;;;;4932763;29;20263;-94
2024/04/13 14:52:08;;;;;;;0.65;0.65;;;;;;;;;;4931722;29;20184;-93
2024/04/13 14:55:12;;;;;;;0.93;0.93;;;;;;;;;;4932077;29;20202;-94
2024/04/13 14:58:22;;;;;;;1.63;0.50;;;;;;;;;;4930193;29;20192;-93
2024/04/13 15:01:26;;;;;;;1.35;0.75;;;;;;;;;;4930121;29;20179;-92
2024/04/13 15:04:34;;;;;;;1.02;0.57;;;;;;;;;;4929959;29;20200;-94
2024/04/13 15:07:39;;;;;;;0.93;0.80;;;;;;;;;;4929668;29;20235;-94
2024/04/13 15:10:47;;;;;;;0.65;0.65;;;;;;;;;;4930464;29;20200;-93
2024/04/13 15:13:51;;;;;;;0.60;0.60;;;;;;;;;;4931961;29;20232;-93
2024/04/13 15:16:58;;;;;;;0.85;0.85;;;;;;;;;;4932771;29;20209;-90
2024/04/13 15:20:04;;;;;;;1.20;0.68;;;;;;;;;;4931745;29;20195;-94
2024/04/13 15:23:09;;;;;;;1.45;0.93;;;;;;;;;;4931469;29;20247;-94
2024/04/13 15:26:15;;;;;;;0.63;0.63;;;;;;;;;;4932997;29;20187;-93
2024/04/13 15:29:19;;;;;;;0.57;0.57;;;;;;;;;;4934538;29;20187;-94
2024/04/13 15:32:25;;;;;;;1.25;0.70;;;;;;;;;;4936154;29;20225;-95
2024/04/13 15:35:47;;;;;;;0.52;0.52;;;;;;;;;;4926656;29;20191;-93
2024/04/13 15:38:59;;;;;;;0.47;0.47;;;;;;;;;;4936956;29;20559;-94
2024/04/13 15:42:04;;;;;;;2.30;0.80;;;;;;;;;;4936411;29;20200;-93
2024/04/13 15:45:09;;;;;;;0.38;0.38;;;;;;;;;;4934690;29;20191;-91
2024/04/13 15:48:13;;;;;;;1.13;0.90;;;;;;;;;;4935193;29;20239;-93
2024/04/13 15:51:18;;;;;;;2.55;1.50;;;;;;;;;;4933584;29;20211;-93
2024/04/13 15:54:24;;;;;;;0.47;0.47;;;;;;;;;;4933558;29;20187;-93
2024/04/13 15:57:29;;;;;;;1.30;1.20;;;;;;;;;;4935250;29;20183;-92
2024/04/13 16:00:34;;;;;;;1.48;0.65;;;;;;;;;;4933052;29;20240;-94
2024/04/13 16:03:39;;;;;;;0.57;0.57;;;;;;;;;;4932587;29;20255;-93
2024/04/13 16:06:43;;;;;;;4.35;0.68;;;;;;;;;;4931730;29;20258;-93
2024/04/13 16:09:49;;;;;;;0.63;0.63;;;;;;;;;;4934138;29;20239;-94
2024/04/13 16:12:54;;;;;;;1.75;1.05;;;;;;;;;;4933844;29;20195;-93
2024/04/13 16:15:59;;;;;;;2.63;1.35;;;;;;;;;;4932247;29;20244;-93
2024/04/13 16:19:04;;;;;;;0.88;0.73;;;;;;;;;;4933371;29;20180;-94
2024/04/13 16:22:10;;;;;;;0.57;0.57;;;;;;;;;;4932279;29;20224;-93
2024/04/13 16:28:52;;;;;;;0.90;0.90;;;;;;;;;;4939214;29;20286;-93
2024/04/13 16:42:28;;;;;;;0.98;0.90;;;;;;;;;;4941200;29;20212;-92
2024/04/13 22:01:42;;;;;;;1.08;0.95;;;;;;;;;;5343348;23;20236;-92
2024/04/13 22:04:47;;;;;;;9.80;1.40;;;;;;;;;;4929321;29;20222;-93
2024/04/13 22:07:53;;;;;;;2.88;1.45;;;;;;;;;;4930745;29;20279;-93
2024/04/13 22:10:57;;;;;;;0.47;0.47;;;;;;;;;;4931228;29;20265;-92
2024/04/13 22:14:02;;;;;;;1.25;1.20;;;;;;;;;;4930784;29;20179;-92
2024/04/13 22:17:10;;;;;;;1.08;1.02;;;;;;;;;;4929298;29;20179;-91
2024/04/13 22:20:14;;;;;;;0.82;0.82;;;;;;;;;;4929735;29;20571;-92
2024/04/13 22:23:19;;;;;;;1.33;1.23;;;;;;;;;;4929880;29;20191;-93
2024/04/13 22:26:23;;;;;;;1.40;0.80;;;;;;;;;;4928422;29;20272;-91
2024/04/13 22:35:00;;;;;;;0.75;0.75;;;;;;;;;;5519593;25;20310;-91
2024/04/13 22:38:06;;;;;;;1.00;0.95;;;;;;;;;;5484076;26;20724;-92
2024/04/13 22:41:13;;;;;;;0.70;0.70;;;;;;;;;;5484236;26;20327;-93
2024/04/13 22:44:20;;;;;;;2.78;0.82;;;;;;;;;;5483849;26;20315;-92
2024/04/13 22:47:29;;;;;;;1.88;1.02;;;;;;;;;;5482860;26;20246;-91
2024/04/13 22:50:36;;;;;;;0.50;0.50;;;;;;;;;;5484171;26;20269;-92
2024/04/13 22:53:42;;;;;;;1.08;0.75;;;;;;;;;;5484590;26;20270;-92
2024/04/13 22:56:46;;;;;;;3.38;1.70;;;;;;;;;;5485390;26;20258;-91
2024/04/13 22:59:53;;;;;;;1.00;0.93;;;;;;;;;;5485633;26;20273;-92
2024/04/13 23:02:57;;;;;;;1.38;1.27;;;;;;;;;;5484031;26;20265;-92
2024/04/13 23:06:07;;;;;;;1.88;1.02;;;;;;;;;;5483688;26;20278;-92
2024/04/13 23:09:12;;;;;;;1.17;1.05;;;;;;;;;;5483791;26;20304;-92
2024/04/13 23:12:18;;;;;;;1.65;1.35;;;;;;;;;;5484975;26;20284;-91
2024/04/13 23:15:25;;;;;;;0.70;0.70;;;;;;;;;;5484626;26;20269;-93
2024/04/13 23:18:30;;;;;;;0.50;0.50;;;;;;;;;;5482639;26;20281;-92
2024/04/13 23:21:40;;;;;;;1.52;1.40;;;;;;;;;;5483026;26;20242;-93
2024/04/13 23:24:45;;;;;;;1.42;1.30;;;;;;;;;;5482474;26;20270;-92
2024/04/13 23:27:52;;;;;;;0.68;0.68;;;;;;;;;;5482511;26;20258;-93
2024/04/13 23:30:57;;;;;;;3.20;1.55;;;;;;;;;;5484140;26;20323;-92
2024/04/13 23:34:04;;;;;;;0.52;0.52;;;;;;;;;;5482138;26;20600;-92
2024/04/13 23:37:11;;;;;;;0.52;0.52;;;;;;;;;;5483195;26;20293;-93
2024/04/13 23:40:17;;;;;;;1.10;1.08;;;;;;;;;;5483168;26;20285;-92
2024/04/13 23:43:21;;;;;;;0.63;0.63;;;;;;;;;;5481807;26;20250;-91
2024/04/13 23:46:28;;;;;;;0.73;0.73;;;;;;;;;;5466487;26;20338;-92
2024/04/13 23:49:36;;;;;;;1.95;1.20;;;;;;;;;;5466699;26;20938;-91
2024/04/13 23:52:43;;;;;;;0.80;0.80;;;;;;;;;;5467169;26;20266;-91
2024/04/13 23:55:51;;;;;;;1.38;1.27;;;;;;;;;;5467788;26;20250;-91
2024/04/13 23:58:56;;;;;;;1.45;0.75;;;;;;;;;;5468014;26;20270;-91
